sensor_id;sensor_type;location;lat;lon;timestamp;pressure;altitude;pressure_sealevel;temperature;humidity
77725;BME280;66892;53.236;6.550;2023-05-10T00:01:00;100847.84;;;12.70;100.00
77725;BME280;66892;53.236;6.550;2023-05-10T00:03:26;100841.63;;;12.69;100.00
77725;BME280;66892;53.236;6.550;2023-05-10T00:05:52;100837.22;;;12.68;100.00
77725;BME280;66892;53.236;6.550;2023-05-10T00:08:18;100837.25;;;12.67;100.00
77725;BME280;66892;53.236;6.550;2023-05-10T00:10:44;100839.91;;;12.65;100.00
77725;BME280;66892;53.236;6.550;2023-05-10T00:13:12;100829.34;;;12.64;100.00
77725;BME280;66892;53.236;6.550;2023-05-10T00:15:38;100832.00;;;12.64;100.00
77725;BME280;66892;53.236;6.550;2023-05-10T00:18:04;100832.00;;;12.64;100.00
77725;BME280;66892;53.236;6.550;2023-05-10T00:20:31;100825.81;;;12.63;100.00
77725;BME280;66892;53.236;6.550;2023-05-10T00:22:57;100824.06;;;12.59;100.00
77725;BME280;66892;53.236;6.550;2023-05-10T00:25:23;100826.72;;;12.59;100.00
77725;BME280;66892;53.236;6.550;2023-05-10T00:27:49;100821.44;;;12.58;100.00
77725;BME280;66892;53.236;6.550;2023-05-10T00:30:17;100820.59;;;12.54;100.00
77725;BME280;66892;53.236;6.550;2023-05-10T00:32:43;100824.16;;;12.53;100.00
77725;BME280;66892;53.236;6.550;2023-05-10T00:35:12;100820.66;;;12.51;100.00
77725;BME280;66892;53.236;6.550;2023-05-10T00:37:38;100813.63;;;12.47;100.00
77725;BME280;66892;53.236;6.550;2023-05-10T00:40:07;100815.38;;;12.48;100.00
77725;BME280;66892;53.236;6.550;2023-05-10T00:42:33;100814.50;;;12.48;100.00
77725;BME280;66892;53.236;6.550;2023-05-10T00:44:59;100804.00;;;12.39;100.00
77725;BME280;66892;53.236;6.550;2023-05-10T00:47:27;100811.00;;;12.44;100.00
77725;BME280;66892;53.236;6.550;2023-05-10T00:49:53;100807.53;;;12.38;100.00
77725;BME280;66892;53.236;6.550;2023-05-10T00:52:19;100809.22;;;12.43;100.00
77725;BME280;66892;53.236;6.550;2023-05-10T00:54:46;100808.34;;;12.43;100.00
77725;BME280;66892;53.236;6.550;2023-05-10T00:57:13;100804.91;;;12.33;100.00
77725;BME280;66892;53.236;6.550;2023-05-10T00:59:39;100803.13;;;12.37;100.00
77725;BME280;66892;53.236;6.550;2023-05-10T01:02:06;100811.13;;;12.32;100.00
77725;BME280;66892;53.236;6.550;2023-05-10T01:04:34;100806.72;;;12.30;100.00
77725;BME280;66892;53.236;6.550;2023-05-10T01:07:01;100799.72;;;12.24;100.00
77725;BME280;66892;53.236;6.550;2023-05-10T01:09:27;100800.59;;;12.25;100.00
77725;BME280;66892;53.236;6.550;2023-05-10T01:11:54;100800.66;;;12.20;100.00
77725;BME280;66892;53.236;6.550;2023-05-10T01:14:21;100809.50;;;12.19;100.00
77725;BME280;66892;53.236;6.550;2023-05-10T01:16:48;100802.38;;;12.26;100.00
77725;BME280;66892;53.236;6.550;2023-05-10T01:19:19;100802.38;;;12.24;100.00
77725;BME280;66892;53.236;6.550;2023-05-10T01:21:53;100800.59;;;12.25;100.00
77725;BME280;66892;53.236;6.550;2023-05-10T01:24:58;100808.59;;;12.20;100.00
77725;BME280;66892;53.236;6.550;2023-05-10T01:28:06;100817.44;;;12.21;100.00
77725;BME280;66892;53.236;6.550;2023-05-10T01:31:03;100813.91;;;12.22;100.00
77725;BME280;66892;53.236;6.550;2023-05-10T01:33:35;100813.94;;;12.19;100.00
77725;BME280;66892;53.236;6.550;2023-05-10T01:36:08;100813.97;;;12.15;100.00
77725;BME280;66892;53.236;6.550;2023-05-10T01:38:42;100808.63;;;12.19;100.00
77725;BME280;66892;53.236;6.550;2023-05-10T01:41:14;100814.88;;;12.11;100.00
77725;BME280;66892;53.236;6.550;2023-05-10T01:43:48;100819.25;;;12.14;100.00
77725;BME280;66892;53.236;6.550;2023-05-10T01:46:24;100820.13;;;12.18;100.00
77725;BME280;66892;53.236;6.550;2023-05-10T01:48:55;100815.72;;;12.15;100.00
77725;BME280;66892;53.236;6.550;2023-05-10T01:51:25;100814.88;;;12.13;100.00
77725;BME280;66892;53.236;6.550;2023-05-10T01:53:54;100815.75;;;12.13;100.00
77725;BME280;66892;53.236;6.550;2023-05-10T01:56:25;100808.72;;;12.08;100.00
77725;BME280;66892;53.236;6.550;2023-05-10T01:58:53;100810.50;;;12.09;100.00
77725;BME280;66892;53.236;6.550;2023-05-10T02:01:20;100815.78;;;12.07;100.00
77725;BME280;66892;53.236;6.550;2023-05-10T02:03:47;100810.50;;;12.07;100.00
77725;BME280;66892;53.236;6.550;2023-05-10T02:06:18;100814.06;;;12.05;100.00
77725;BME280;66892;53.236;6.550;2023-05-10T02:08:46;100810.50;;;12.07;100.00
77725;BME280;66892;53.236;6.550;2023-05-10T02:11:14;100808.78;;;12.03;100.00
77725;BME280;66892;53.236;6.550;2023-05-10T02:13:41;100808.81;;;12.00;100.00
77725;BME280;66892;53.236;6.550;2023-05-10T02:16:09;100812.31;;;12.04;100.00
77725;BME280;66892;53.236;6.550;2023-05-10T02:18:36;100820.28;;;12.01;100.00
77725;BME280;66892;53.236;6.550;2023-05-10T02:21:02;100815.88;;;11.98;100.00
77725;BME280;66892;53.236;6.550;2023-05-10T02:23:31;100822.13;;;11.94;100.00
77725;BME280;66892;53.236;6.550;2023-05-10T02:25:58;100820.34;;;11.96;100.00
77725;BME280;66892;53.236;6.550;2023-05-10T02:28:26;100816.84;;;11.93;100.00
77725;BME280;66892;53.236;6.550;2023-05-10T02:30:53;100823.88;;;11.95;100.00
77725;BME280;66892;53.236;6.550;2023-05-10T02:33:21;100813.28;;;11.95;100.00
77725;BME280;66892;53.236;6.550;2023-05-10T02:35:51;100822.13;;;11.91;100.00
77725;BME280;66892;53.236;6.550;2023-05-10T02:38:19;100822.09;;;11.96;100.00
77725;BME280;66892;53.236;6.550;2023-05-10T02:40:47;100815.03;;;11.96;100.00
77725;BME280;66892;53.236;6.550;2023-05-10T02:43:15;100811.53;;;11.94;100.00
77725;BME280;66892;53.236;6.550;2023-05-10T02:45:43;100810.66;;;11.92;100.00
77725;BME280;66892;53.236;6.550;2023-05-10T02:48:09;100798.31;;;11.88;100.00
77725;BME280;66892;53.236;6.550;2023-05-10T02:50:37;100805.38;;;11.89;100.00
77725;BME280;66892;53.236;6.550;2023-05-10T02:53:09;100801.84;;;11.89;100.00
77725;BME280;66892;53.236;6.550;2023-05-10T02:55:37;100801.81;;;11.92;100.00
77725;BME280;66892;53.236;6.550;2023-05-10T02:58:06;100800.97;;;11.88;100.00
77725;BME280;66892;53.236;6.550;2023-05-10T03:00:32;100795.63;;;11.93;100.00
77725;BME280;66892;53.236;6.550;2023-05-10T03:02:58;100803.59;;;11.93;100.00
77725;BME280;66892;53.236;6.550;2023-05-10T03:05:24;100806.22;;;11.91;100.00
77725;BME280;66892;53.236;6.550;2023-05-10T03:07:52;100801.88;;;11.87;100.00
77725;BME280;66892;53.236;6.550;2023-05-10T03:10:18;100808.91;;;11.90;100.00
77725;BME280;66892;53.236;6.550;2023-05-10T03:12:58;100798.34;;;11.87;100.00
77725;BME280;66892;53.236;6.550;2023-05-10T03:15:37;100802.75;;;11.88;100.00
77725;BME280;66892;53.236;6.550;2023-05-10T03:18:10;100806.28;;;11.87;100.00
77725;BME280;66892;53.236;6.550;2023-05-10T03:20:42;100801.84;;;11.90;100.00
77725;BME280;66892;53.236;6.550;2023-05-10T03:23:12;100808.91;;;11.88;100.00
77725;BME280;66892;53.236;6.550;2023-05-10T03:25:39;100807.22;;;11.84;100.00
77725;BME280;66892;53.236;6.550;2023-05-10T03:28:07;100807.16;;;11.90;100.00
77725;BME280;66892;53.236;6.550;2023-05-10T03:30:35;100810.69;;;11.89;100.00
77725;BME280;66892;53.236;6.550;2023-05-10T03:33:04;100811.53;;;11.93;100.00
77725;BME280;66892;53.236;6.550;2023-05-10T03:35:30;100812.41;;;11.93;100.00
77725;BME280;66892;53.236;6.550;2023-05-10T03:37:56;100810.66;;;11.94;100.00
77725;BME280;66892;53.236;6.550;2023-05-10T03:40:23;100812.34;;;11.98;100.00
77725;BME280;66892;53.236;6.550;2023-05-10T03:42:49;100817.66;;;11.98;100.00
77725;BME280;66892;53.236;6.550;2023-05-10T03:45:15;100818.53;;;11.98;100.00
77725;BME280;66892;53.236;6.550;2023-05-10T03:47:43;100825.56;;;12.01;100.00
77725;BME280;66892;53.236;6.550;2023-05-10T03:50:09;100829.16;;;11.97;100.00
77725;BME280;66892;53.236;6.550;2023-05-10T03:52:36;100818.59;;;11.94;100.00
77725;BME280;66892;53.236;6.550;2023-05-10T03:55:02;100822.16;;;11.88;100.00
77725;BME280;66892;53.236;6.550;2023-05-10T03:57:29;100818.63;;;11.91;100.00
77725;BME280;66892;53.236;6.550;2023-05-10T03:59:55;100820.34;;;11.95;100.00
77725;BME280;66892;53.236;6.550;2023-05-10T04:02:21;100819.50;;;11.88;100.00
77725;BME280;66892;53.236;6.550;2023-05-10T04:04:48;100828.41;;;11.84;100.00
77725;BME280;66892;53.236;6.550;2023-05-10T04:07:14;100823.09;;;11.84;100.00
77725;BME280;66892;53.236;6.550;2023-05-10T04:09:41;100826.63;;;11.83;100.00
77725;BME280;66892;53.236;6.550;2023-05-10T04:12:07;100822.28;;;11.78;100.00
77725;BME280;66892;53.236;6.550;2023-05-10T04:14:33;100822.28;;;11.78;100.00
77725;BME280;66892;53.236;6.550;2023-05-10T04:16:59;100824.06;;;11.73;100.00
77725;BME280;66892;53.236;6.550;2023-05-10T04:19:28;100821.41;;;11.73;100.00
77725;BME280;66892;53.236;6.550;2023-05-10T04:21:56;100828.47;;;11.72;100.00
77725;BME280;66892;53.236;6.550;2023-05-10T04:24:22;100824.97;;;11.75;100.00
77725;BME280;66892;53.236;6.550;2023-05-10T04:26:48;100825.84;;;11.74;100.00
77725;BME280;66892;53.236;6.550;2023-05-10T04:29:14;100835.53;;;11.76;100.00
77725;BME280;66892;53.236;6.550;2023-05-10T04:31:40;100821.41;;;11.70;100.00
77725;BME280;66892;53.236;6.550;2023-05-10T04:34:06;100832.03;;;11.68;100.00
77725;BME280;66892;53.236;6.550;2023-05-10T04:36:32;100832.03;;;11.71;100.00
77725;BME280;66892;53.236;6.550;2023-05-10T04:39:02;100832.03;;;11.71;100.00
77725;BME280;66892;53.236;6.550;2023-05-10T04:41:29;100832.91;;;11.75;100.00
77725;BME280;66892;53.236;6.550;2023-05-10T04:43:55;100833.78;;;11.72;100.00
77725;BME280;66892;53.236;6.550;2023-05-10T04:46:21;100835.53;;;11.73;100.00
77725;BME280;66892;53.236;6.550;2023-05-10T04:48:47;100835.56;;;11.75;100.00
77725;BME280;66892;53.236;6.550;2023-05-10T04:51:13;100844.38;;;11.74;100.00
77725;BME280;66892;53.236;6.550;2023-05-10T04:53:39;100846.16;;;11.69;100.00
77725;BME280;66892;53.236;6.550;2023-05-10T04:56:07;100847.94;;;11.67;100.00
77725;BME280;66892;53.236;6.550;2023-05-10T04:58:33;100847.91;;;11.73;100.00
77725;BME280;66892;53.236;6.550;2023-05-10T05:01:05;100851.44;;;11.75;100.00
77725;BME280;66892;53.236;6.550;2023-05-10T05:03:31;100854.09;;;11.73;100.00
77725;BME280;66892;53.236;6.550;2023-05-10T05:05:58;100856.72;;;11.78;100.00
77725;BME280;66892;53.236;6.550;2023-05-10T05:08:24;100860.28;;;11.72;100.00
77725;BME280;66892;53.236;6.550;2023-05-10T05:10:50;100864.63;;;11.79;100.00
77725;BME280;66892;53.236;6.550;2023-05-10T05:13:18;100874.31;;;11.82;100.00
77725;BME280;66892;53.236;6.550;2023-05-10T05:15:44;100858.41;;;11.85;100.00
77725;BME280;66892;53.236;6.550;2023-05-10T05:18:10;100870.78;;;11.83;100.00
77725;BME280;66892;53.236;6.550;2023-05-10T05:20:36;100872.56;;;11.84;100.00
77725;BME280;66892;53.236;6.550;2023-05-10T05:23:02;100872.56;;;11.82;100.00
77725;BME280;66892;53.236;6.550;2023-05-10T05:25:28;100872.59;;;11.76;100.00
77725;BME280;66892;53.236;6.550;2023-05-10T05:27:54;100871.66;;;11.85;100.00
77725;BME280;66892;53.236;6.550;2023-05-10T05:30:21;100872.56;;;11.82;100.00
77725;BME280;66892;53.236;6.550;2023-05-10T05:32:47;100879.63;;;11.83;100.00
77725;BME280;66892;53.236;6.550;2023-05-10T05:35:14;100872.50;;;11.90;100.00
77725;BME280;66892;53.236;6.550;2023-05-10T05:37:40;100875.16;;;11.88;100.00
77725;BME280;66892;53.236;6.550;2023-05-10T05:40:06;100876.97;;;11.83;100.00
77725;BME280;66892;53.236;6.550;2023-05-10T05:42:33;100881.41;;;11.84;100.00
77725;BME280;66892;53.236;6.550;2023-05-10T05:44:59;100883.13;;;11.87;100.00
77725;BME280;66892;53.236;6.550;2023-05-10T05:47:26;100888.41;;;11.88;100.00
77725;BME280;66892;53.236;6.550;2023-05-10T05:49:52;100886.66;;;11.90;100.00
77725;BME280;66892;53.236;6.550;2023-05-10T05:52:18;100890.16;;;11.92;100.00
77725;BME280;66892;53.236;6.550;2023-05-10T05:54:44;100895.44;;;11.97;100.00
77725;BME280;66892;53.236;6.550;2023-05-10T05:57:10;100898.06;;;11.97;100.00
77725;BME280;66892;53.236;6.550;2023-05-10T05:59:38;100900.69;;;11.98;100.00
77725;BME280;66892;53.236;6.550;2023-05-10T06:02:09;100894.50;;;12.04;100.00
77725;BME280;66892;53.236;6.550;2023-05-10T06:04:37;100898.91;;;12.03;100.00
77725;BME280;66892;53.236;6.550;2023-05-10T06:07:03;100903.34;;;12.00;100.00
77725;BME280;66892;53.236;6.550;2023-05-10T06:09:29;100913.91;;;12.01;100.00
77725;BME280;66892;53.236;6.550;2023-05-10T06:11:55;100915.69;;;12.01;100.00
77725;BME280;66892;53.236;6.550;2023-05-10T06:14:21;100921.91;;;11.98;100.00
77725;BME280;66892;53.236;6.550;2023-05-10T06:16:47;100918.38;;;11.96;100.00
77725;BME280;66892;53.236;6.550;2023-05-10T06:19:13;100916.63;;;11.95;100.00
77725;BME280;66892;53.236;6.550;2023-05-10T06:21:40;100914.88;;;11.91;100.00
77725;BME280;66892;53.236;6.550;2023-05-10T06:24:07;100927.22;;;11.95;100.00
77725;BME280;66892;53.236;6.550;2023-05-10T06:26:33;100929.94;;;11.91;100.00
77725;BME280;66892;53.236;6.550;2023-05-10T06:28:59;100929.06;;;11.87;100.00
77725;BME280;66892;53.236;6.550;2023-05-10T06:31:25;100931.69;;;11.89;100.00
77725;BME280;66892;53.236;6.550;2023-05-10T06:33:51;100937.06;;;11.81;100.00
77725;BME280;66892;53.236;6.550;2023-05-10T06:36:17;100943.25;;;11.77;100.00
77725;BME280;66892;53.236;6.550;2023-05-10T06:38:44;100938.88;;;11.75;100.00
77725;BME280;66892;53.236;6.550;2023-05-10T06:41:10;100942.41;;;11.74;100.00
77725;BME280;66892;53.236;6.550;2023-05-10T06:43:37;100944.19;;;11.72;100.00
77725;BME280;66892;53.236;6.550;2023-05-10T06:46:05;100970.66;;;11.70;100.00
77725;BME280;66892;53.236;6.550;2023-05-10T06:48:32;100964.53;;;11.62;100.00
77725;BME280;66892;53.236;6.550;2023-05-10T06:50:58;100969.81;;;11.62;100.00
77725;BME280;66892;53.236;6.550;2023-05-10T06:53:24;100969.84;;;11.59;100.00
77725;BME280;66892;53.236;6.550;2023-05-10T06:55:52;100964.53;;;11.57;100.00
77725;BME280;66892;53.236;6.550;2023-05-10T06:58:18;100971.56;;;11.63;100.00
77725;BME280;66892;53.236;6.550;2023-05-10T07:00:44;100970.69;;;11.61;100.00
77725;BME280;66892;53.236;6.550;2023-05-10T07:03:11;100967.16;;;11.63;100.00
77725;BME280;66892;53.236;6.550;2023-05-10T07:05:37;100978.63;;;11.69;100.00
77725;BME280;66892;53.236;6.550;2023-05-10T07:08:03;100975.09;;;11.71;100.00
77725;BME280;66892;53.236;6.550;2023-05-10T07:10:29;100979.47;;;11.69;100.00
77725;BME280;66892;53.236;6.550;2023-05-10T07:12:57;100978.59;;;11.73;100.00
77725;BME280;66892;53.236;6.550;2023-05-10T07:15:23;100975.03;;;11.76;100.00
77725;BME280;66892;53.236;6.550;2023-05-10T07:17:49;100980.38;;;11.74;100.00
77725;BME280;66892;53.236;6.550;2023-05-10T07:20:15;100988.25;;;11.88;100.00
77725;BME280;66892;53.236;6.550;2023-05-10T07:22:42;100990.03;;;11.83;100.00
77725;BME280;66892;53.236;6.550;2023-05-10T07:25:08;100988.22;;;11.85;100.00
77725;BME280;66892;53.236;6.550;2023-05-10T07:27:34;100988.22;;;11.89;100.00
77725;BME280;66892;53.236;6.550;2023-05-10T07:30:02;100989.09;;;11.93;100.00
77725;BME280;66892;53.236;6.550;2023-05-10T07:32:28;100997.00;;;12.00;100.00
77725;BME280;66892;53.236;6.550;2023-05-10T07:34:54;100998.72;;;12.03;100.00
77725;BME280;66892;53.236;6.550;2023-05-10T07:37:20;100998.72;;;12.03;100.00
77725;BME280;66892;53.236;6.550;2023-05-10T07:39:47;101000.47;;;12.08;100.00
77725;BME280;66892;53.236;6.550;2023-05-10T07:42:12;101007.56;;;12.06;100.00
77725;BME280;66892;53.236;6.550;2023-05-10T07:44:38;101000.47;;;12.10;100.00
77725;BME280;66892;53.236;6.550;2023-05-10T07:47:06;101002.25;;;12.06;100.00
77725;BME280;66892;53.236;6.550;2023-05-10T07:49:32;101000.44;;;12.11;100.00
77725;BME280;66892;53.236;6.550;2023-05-10T07:51:58;101004.00;;;12.06;100.00
77725;BME280;66892;53.236;6.550;2023-05-10T07:54:24;101012.81;;;12.11;100.00
77725;BME280;66892;53.236;6.550;2023-05-10T07:56:50;101015.53;;;12.03;100.00
77725;BME280;66892;53.236;6.550;2023-05-10T07:59:17;101021.69;;;12.05;100.00
77725;BME280;66892;53.236;6.550;2023-05-10T08:01:44;101017.28;;;12.06;100.00
77725;BME280;66892;53.236;6.550;2023-05-10T08:04:11;101031.34;;;12.15;100.00
77725;BME280;66892;53.236;6.550;2023-05-10T08:06:37;101031.34;;;12.14;100.00
77725;BME280;66892;53.236;6.550;2023-05-10T08:09:03;101031.28;;;12.20;100.00
77725;BME280;66892;53.236;6.550;2023-05-10T08:11:29;101051.72;;;12.09;100.00
77725;BME280;66892;53.236;6.550;2023-05-10T08:13:55;101043.72;;;12.12;100.00
77725;BME280;66892;53.236;6.550;2023-05-10T08:16:21;101048.13;;;12.14;100.00
77725;BME280;66892;53.236;6.550;2023-05-10T08:18:48;101055.22;;;12.12;100.00
77725;BME280;66892;53.236;6.550;2023-05-10T08:21:16;101056.09;;;12.13;100.00
77725;BME280;66892;53.236;6.550;2023-05-10T08:23:42;101056.09;;;12.16;100.00
77725;BME280;66892;53.236;6.550;2023-05-10T08:26:09;101052.53;;;12.14;100.00
77725;BME280;66892;53.236;6.550;2023-05-10T08:28:36;101049.84;;;12.20;100.00
77725;BME280;66892;53.236;6.550;2023-05-10T08:31:02;101052.50;;;12.20;100.00
77725;BME280;66892;53.236;6.550;2023-05-10T08:33:28;101059.66;;;12.13;100.00
77725;BME280;66892;53.236;6.550;2023-05-10T08:35:54;101062.34;;;12.03;100.00
77725;BME280;66892;53.236;6.550;2023-05-10T08:38:21;101062.31;;;12.09;100.00
77725;BME280;66892;53.236;6.550;2023-05-10T08:40:48;101072.03;;;12.10;100.00
77725;BME280;66892;53.236;6.550;2023-05-10T08:43:16;101069.34;;;12.14;100.00
77725;BME280;66892;53.236;6.550;2023-05-10T08:45:44;101078.13;;;12.21;100.00
77725;BME280;66892;53.236;6.550;2023-05-10T08:48:13;101070.22;;;12.20;100.00
77725;BME280;66892;53.236;6.550;2023-05-10T08:50:40;101079.03;;;12.17;100.00
77725;BME280;66892;53.236;6.550;2023-05-10T08:53:09;101081.69;;;12.19;100.00
77725;BME280;66892;53.236;6.550;2023-05-10T08:55:37;101091.41;;;12.18;100.00
77725;BME280;66892;53.236;6.550;2023-05-10T08:58:04;101092.28;;;12.23;100.00
77725;BME280;66892;53.236;6.550;2023-05-10T09:00:31;101103.78;;;12.14;100.00
77725;BME280;66892;53.236;6.550;2023-05-10T09:02:57;101103.75;;;12.22;100.00
77725;BME280;66892;53.236;6.550;2023-05-10T09:05:24;101108.16;;;12.29;99.87
77725;BME280;66892;53.236;6.550;2023-05-10T09:07:50;101101.84;;;12.45;100.00
77725;BME280;66892;53.236;6.550;2023-05-10T09:10:16;101094.72;;;12.55;99.63
77725;BME280;66892;53.236;6.550;2023-05-10T09:12:44;101100.16;;;12.32;100.00
77725;BME280;66892;53.236;6.550;2023-05-10T09:15:11;101102.75;;;12.40;99.90
77725;BME280;66892;53.236;6.550;2023-05-10T09:17:38;101101.78;;;12.53;99.09
77725;BME280;66892;53.236;6.550;2023-05-10T09:20:07;101102.59;;;12.64;100.00
77725;BME280;66892;53.236;6.550;2023-05-10T09:22:33;101108.63;;;12.83;98.62
77725;BME280;66892;53.236;6.550;2023-05-10T09:25:06;101118.38;;;12.82;98.38
77725;BME280;66892;53.236;6.550;2023-05-10T09:27:33;101128.03;;;12.89;99.07
77725;BME280;66892;53.236;6.550;2023-05-10T09:30:00;101128.94;;;12.88;99.20
77725;BME280;66892;53.236;6.550;2023-05-10T09:32:36;101129.84;;;12.86;98.08
77725;BME280;66892;53.236;6.550;2023-05-10T09:35:09;101128.16;;;12.73;99.00
77725;BME280;66892;53.236;6.550;2023-05-10T09:37:35;101127.25;;;12.80;99.43
77725;BME280;66892;53.236;6.550;2023-05-10T09:40:04;101129.75;;;12.95;99.97
77725;BME280;66892;53.236;6.550;2023-05-10T09:42:30;101133.22;;;13.04;98.74
77725;BME280;66892;53.236;6.550;2023-05-10T09:45:03;101133.31;;;12.91;97.34
77725;BME280;66892;53.236;6.550;2023-05-10T09:47:32;101140.38;;;12.95;98.34
77725;BME280;66892;53.236;6.550;2023-05-10T09:49:58;101141.25;;;12.95;98.33
77725;BME280;66892;53.236;6.550;2023-05-10T09:52:29;101135.88;;;13.06;98.33
77725;BME280;66892;53.236;6.550;2023-05-10T09:54:55;101132.28;;;13.16;97.31
77725;BME280;66892;53.236;6.550;2023-05-10T09:57:22;101135.84;;;13.12;97.30
77725;BME280;66892;53.236;6.550;2023-05-10T09:59:48;101152.63;;;13.15;98.24
77725;BME280;66892;53.236;6.550;2023-05-10T10:02:17;101145.31;;;13.42;97.23
77725;BME280;66892;53.236;6.550;2023-05-10T10:04:43;101138.97;;;13.52;96.57
77725;BME280;66892;53.236;6.550;2023-05-10T10:07:09;101142.38;;;13.67;95.32
77725;BME280;66892;53.236;6.550;2023-05-10T10:09:35;101151.06;;;13.83;95.23
77725;BME280;66892;53.236;6.550;2023-05-10T10:12:02;101148.34;;;13.86;93.18
77725;BME280;66892;53.236;6.550;2023-05-10T10:14:28;101144.78;;;13.89;93.46
77725;BME280;66892;53.236;6.550;2023-05-10T10:16:55;101158.84;;;13.98;92.08
77725;BME280;66892;53.236;6.550;2023-05-10T10:19:22;101154.31;;;14.05;92.94
77725;BME280;66892;53.236;6.550;2023-05-10T10:21:49;101162.38;;;13.97;92.56
77725;BME280;66892;53.236;6.550;2023-05-10T10:24:16;101169.44;;;14.01;92.45
77725;BME280;66892;53.236;6.550;2023-05-10T10:26:42;101166.69;;;14.07;92.06
77725;BME280;66892;53.236;6.550;2023-05-10T10:29:20;101176.28;;;14.22;92.61
77725;BME280;66892;53.236;6.550;2023-05-10T10:31:55;101177.94;;;14.31;91.40
77725;BME280;66892;53.236;6.550;2023-05-10T10:34:29;101177.06;;;14.29;89.97
77725;BME280;66892;53.236;6.550;2023-05-10T10:36:56;101189.63;;;14.19;90.98
77725;BME280;66892;53.236;6.550;2023-05-10T10:39:23;101179.97;;;14.09;92.03
77725;BME280;66892;53.236;6.550;2023-05-10T10:41:54;101183.38;;;14.21;91.88
77725;BME280;66892;53.236;6.550;2023-05-10T10:44:38;101191.22;;;14.34;89.14
77725;BME280;66892;53.236;6.550;2023-05-10T10:47:06;101190.16;;;14.45;89.84
77725;BME280;66892;53.236;6.550;2023-05-10T10:49:44;101191.22;;;14.34;88.79
77725;BME280;66892;53.236;6.550;2023-05-10T10:52:24;101186.47;;;14.55;90.62
77725;BME280;66892;53.236;6.550;2023-05-10T10:54:59;101181.19;;;14.52;89.16
77725;BME280;66892;53.236;6.550;2023-05-10T10:57:27;101179.69;;;14.30;90.74
77725;BME280;66892;53.236;6.550;2023-05-10T11:02:59;101181.41;;;14.37;90.82
77725;BME280;66892;53.236;6.550;2023-05-10T11:05:40;101177.59;;;14.55;91.13
77725;BME280;66892;53.236;6.550;2023-05-10T11:08:10;101200.97;;;14.32;89.81
77725;BME280;66892;53.236;6.550;2023-05-10T11:10:36;101192.59;;;14.62;90.13
77725;BME280;66892;53.236;6.550;2023-05-10T11:13:03;101200.56;;;14.62;90.35
77725;BME280;66892;53.236;6.550;2023-05-10T11:15:31;101201.47;;;14.61;89.43
77725;BME280;66892;53.236;6.550;2023-05-10T11:17:57;101213.56;;;14.85;89.95
77725;BME280;66892;53.236;6.550;2023-05-10T11:20:27;101211.63;;;14.96;87.15
77725;BME280;66892;53.236;6.550;2023-05-10T11:23:11;101214.19;;;15.02;87.92
77725;BME280;66892;53.236;6.550;2023-05-10T11:25:41;101207.44;;;14.80;86.51
77725;BME280;66892;53.236;6.550;2023-05-10T11:28:07;101207.53;;;14.70;87.80
77725;BME280;66892;53.236;6.550;2023-05-10T11:30:34;101207.53;;;14.70;85.83
77725;BME280;66892;53.236;6.550;2023-05-10T11:33:00;101206.84;;;14.58;86.77
77725;BME280;66892;53.236;6.550;2023-05-10T11:35:27;101218.53;;;14.48;87.91
77725;BME280;66892;53.236;6.550;2023-05-10T11:37:53;101213.84;;;14.65;87.66
77725;BME280;66892;53.236;6.550;2023-05-10T11:40:22;101212.88;;;14.72;87.69
77725;BME280;66892;53.236;6.550;2023-05-10T11:42:52;101224.16;;;14.88;88.52
77725;BME280;66892;53.236;6.550;2023-05-10T11:45:23;101221.25;;;15.03;87.79
77725;BME280;66892;53.236;6.550;2023-05-10T11:47:49;101226.38;;;15.18;87.42
77725;BME280;66892;53.236;6.550;2023-05-10T11:50:17;101219.13;;;15.26;86.56
77725;BME280;66892;53.236;6.550;2023-05-10T11:52:43;101225.44;;;15.19;84.29
77725;BME280;66892;53.236;6.550;2023-05-10T11:55:09;101230.09;;;15.06;85.21
77725;BME280;66892;53.236;6.550;2023-05-10T11:57:36;101232.69;;;15.11;85.17
77725;BME280;66892;53.236;6.550;2023-05-10T12:00:05;101234.63;;;15.01;84.56
77725;BME280;66892;53.236;6.550;2023-05-10T12:02:31;101240.03;;;14.94;85.76
77725;BME280;66892;53.236;6.550;2023-05-10T12:04:58;101242.06;;;14.78;85.87
77725;BME280;66892;53.236;6.550;2023-05-10T12:07:25;101245.06;;;14.52;87.64
77725;BME280;66892;53.236;6.550;2023-05-10T12:10:08;101239.63;;;14.63;87.35
77725;BME280;66892;53.236;6.550;2023-05-10T12:12:37;101247.72;;;14.54;86.32
77725;BME280;66892;53.236;6.550;2023-05-10T12:15:05;101255.94;;;14.34;87.70
77725;BME280;66892;53.236;6.550;2023-05-10T12:17:32;101254.22;;;14.25;88.89
77725;BME280;66892;53.236;6.550;2023-05-10T12:19:59;101251.63;;;14.19;89.52
77725;BME280;66892;53.236;6.550;2023-05-10T12:22:25;101257.00;;;14.18;90.90
77725;BME280;66892;53.236;6.550;2023-05-10T12:24:51;101259.63;;;14.19;91.46
77725;BME280;66892;53.236;6.550;2023-05-10T12:27:18;101265.78;;;14.24;89.62
77725;BME280;66892;53.236;6.550;2023-05-10T12:29:45;101265.72;;;14.34;90.66
77725;BME280;66892;53.236;6.550;2023-05-10T12:32:11;101265.69;;;14.32;89.60
77725;BME280;66892;53.236;6.550;2023-05-10T12:34:37;101267.47;;;14.35;89.82
77725;BME280;66892;53.236;6.550;2023-05-10T12:37:04;101276.34;;;14.31;89.96
77725;BME280;66892;53.236;6.550;2023-05-10T12:39:40;101274.63;;;14.26;89.75
77725;BME280;66892;53.236;6.550;2023-05-10T12:42:07;101274.66;;;14.25;89.36
77725;BME280;66892;53.236;6.550;2023-05-10T12:44:33;101275.50;;;14.29;90.44
77725;BME280;66892;53.236;6.550;2023-05-10T12:47:00;101276.22;;;14.43;89.32
77725;BME280;66892;53.236;6.550;2023-05-10T12:49:26;101278.84;;;14.46;89.71